createdAt,value
2018-05-31T00:00:59.486Z,11.37
2018-05-31T00:03:27.707Z,15.70
2018-05-31T00:05:55.914Z,15.53
2018-05-31T00:08:24.119Z,13.77
2018-05-31T00:10:52.352Z,14.37
2018-05-31T00:13:20.544Z,15.87
2018-05-31T00:15:48.764Z,15.63
2018-05-31T00:18:16.969Z,16.23
2018-05-31T00:20:45.195Z,16.00
2018-05-31T00:23:13.430Z,15.93
2018-05-31T00:25:41.663Z,15.47
2018-05-31T00:28:09.914Z,16.57
2018-05-31T00:30:38.110Z,15.80
2018-05-31T00:33:06.287Z,20.67
2018-05-31T00:35:34.578Z,18.33
2018-05-31T00:38:02.769Z,17.23
2018-05-31T00:40:31.010Z,17.63
2018-05-31T00:42:59.191Z,22.47
2018-05-31T00:45:27.480Z,19.40
2018-05-31T00:47:55.671Z,16.93
2018-05-31T00:50:23.914Z,16.00
2018-05-31T00:52:52.105Z,19.13
2018-05-31T00:58:22.754Z,15.57
2018-05-31T01:00:50.940Z,18.60
2018-05-31T01:03:19.136Z,20.60
2018-05-31T01:05:47.352Z,16.70
2018-05-31T01:08:15.542Z,16.47
2018-05-31T01:10:43.758Z,15.33
2018-05-31T01:13:11.968Z,17.23
2018-05-31T01:15:40.227Z,17.53
2018-05-31T01:18:08.421Z,17.13
2018-05-31T01:20:36.632Z,15.90
2018-05-31T01:23:04.795Z,15.10
2018-05-31T01:25:33.021Z,17.03
2018-05-31T01:28:01.314Z,17.37
2018-05-31T01:30:29.513Z,21.23
2018-05-31T01:32:57.738Z,18.43
2018-05-31T01:35:25.937Z,19.00
2018-05-31T01:40:48.690Z,17.67
2018-05-31T01:43:16.891Z,18.50
2018-05-31T01:45:45.090Z,15.73
2018-05-31T01:48:13.343Z,15.40
2018-05-31T01:50:41.530Z,20.93
2018-05-31T01:53:09.755Z,19.37
2018-05-31T01:55:38.000Z,15.73
2018-05-31T01:58:06.221Z,16.00
2018-05-31T02:00:34.429Z,14.77
2018-05-31T02:03:02.599Z,14.70
2018-05-31T02:05:30.805Z,17.00
2018-05-31T02:07:59.010Z,14.40
2018-05-31T02:10:27.240Z,14.80
2018-05-31T02:12:55.436Z,15.60
2018-05-31T02:15:23.613Z,15.20
2018-05-31T02:17:51.818Z,15.60
2018-05-31T02:20:20.008Z,14.83
2018-05-31T02:22:48.224Z,13.53
2018-05-31T02:25:16.441Z,14.83
2018-05-31T02:27:44.651Z,14.27
2018-05-31T02:30:12.881Z,14.53
2018-05-31T02:32:41.088Z,14.70
2018-05-31T02:35:09.312Z,14.80
2018-05-31T02:37:37.511Z,14.10
2018-05-31T02:40:05.729Z,14.60
2018-05-31T02:42:33.927Z,14.90
2018-05-31T02:45:02.159Z,16.40
2018-05-31T02:47:30.348Z,12.77
2018-05-31T02:49:58.545Z,14.07
2018-05-31T02:52:26.743Z,13.67
2018-05-31T02:54:54.930Z,11.80
2018-05-31T02:57:23.138Z,11.97
2018-05-31T02:59:51.312Z,15.97
2018-05-31T03:02:19.520Z,17.73
2018-05-31T03:04:47.728Z,12.50
2018-05-31T03:07:15.894Z,13.53
2018-05-31T03:09:44.115Z,14.27
2018-05-31T03:12:12.320Z,13.83
2018-05-31T03:14:40.543Z,16.33
2018-05-31T03:17:08.744Z,17.67
2018-05-31T03:19:36.966Z,17.87
2018-05-31T03:22:05.160Z,15.77
2018-05-31T03:24:33.346Z,15.13
2018-05-31T03:27:01.582Z,15.70
2018-05-31T03:29:29.812Z,14.53
2018-05-31T03:31:58.050Z,14.17
2018-05-31T03:34:26.309Z,13.73
2018-05-31T03:36:54.539Z,15.77
2018-05-31T03:39:22.699Z,16.37
2018-05-31T03:41:50.877Z,14.40
2018-05-31T03:44:19.084Z,14.70
2018-05-31T03:46:47.284Z,13.57
2018-05-31T03:49:15.571Z,13.30
2018-05-31T03:51:43.762Z,17.30
2018-05-31T03:54:11.922Z,16.33
2018-05-31T03:56:40.109Z,15.33
2018-05-31T03:59:08.300Z,18.43
2018-05-31T04:01:36.482Z,16.27
2018-05-31T04:04:04.665Z,15.13
2018-05-31T04:06:32.880Z,16.47
2018-05-31T04:09:01.063Z,13.50
2018-05-31T04:11:29.282Z,14.97
2018-05-31T04:13:57.480Z,20.70
2018-05-31T04:16:25.668Z,11.37
2018-05-31T04:19:07.978Z,10.13
2018-05-31T04:21:38.872Z,11.53
2018-05-31T04:24:07.353Z,14.43
2018-05-31T04:26:35.516Z,7.43
2018-05-31T04:29:03.794Z,10.73
2018-05-31T04:31:31.969Z,10.30
2018-05-31T04:34:00.210Z,13.97
2018-05-31T04:36:28.411Z,10.23
2018-05-31T04:38:56.649Z,9.40
2018-05-31T04:41:24.842Z,7.37
2018-05-31T04:43:53.011Z,13.97
2018-05-31T04:46:21.220Z,7.17
2018-05-31T04:48:49.402Z,10.30
2018-05-31T04:51:17.608Z,7.77
2018-05-31T04:53:45.831Z,10.20
2018-05-31T04:56:14.035Z,7.67
2018-05-31T04:58:42.310Z,6.47
2018-05-31T05:01:10.523Z,7.80
2018-05-31T05:03:38.703Z,8.90
2018-05-31T05:06:06.876Z,7.23
2018-05-31T05:08:35.077Z,7.80
2018-05-31T05:11:17.647Z,6.23
2018-05-31T05:13:47.813Z,6.47
2018-05-31T05:16:16.052Z,6.00
2018-05-31T05:18:44.275Z,9.87
2018-05-31T05:21:12.441Z,8.83
2018-05-31T05:23:40.659Z,8.50
2018-05-31T05:26:08.920Z,9.97
2018-05-31T05:28:37.097Z,14.07
2018-05-31T05:31:05.337Z,10.43
2018-05-31T05:33:33.505Z,11.73
2018-05-31T05:36:01.707Z,13.60
2018-05-31T05:38:29.965Z,12.57
2018-05-31T05:40:58.139Z,7.87
2018-05-31T05:43:26.381Z,8.27
2018-05-31T05:45:54.544Z,8.20
2018-05-31T05:48:22.726Z,12.33
2018-05-31T05:50:50.953Z,8.93
2018-05-31T05:53:19.163Z,8.20
2018-05-31T05:55:47.363Z,7.53
2018-05-31T05:58:15.564Z,8.67
2018-05-31T06:00:43.720Z,8.87
2018-05-31T06:03:11.909Z,7.47
2018-05-31T06:05:40.063Z,5.80
2018-05-31T06:08:08.268Z,6.50
2018-05-31T06:10:36.581Z,11.87
2018-05-31T06:13:04.789Z,6.30
2018-05-31T06:15:33.061Z,6.33
2018-05-31T06:18:01.192Z,7.53
2018-05-31T06:20:29.427Z,4.77
2018-05-31T06:22:57.608Z,8.93
2018-05-31T06:25:25.831Z,4.33
2018-05-31T06:27:54.024Z,9.50
2018-05-31T06:30:22.243Z,5.03
2018-05-31T06:32:50.455Z,3.27
2018-05-31T06:35:18.656Z,5.27
2018-05-31T06:37:46.840Z,6.80
2018-05-31T06:40:15.037Z,6.80
2018-05-31T06:42:43.210Z,6.30
2018-05-31T06:45:11.358Z,3.47
2018-05-31T06:47:39.549Z,4.63
2018-05-31T06:50:07.759Z,5.63
2018-05-31T06:52:35.919Z,3.73
2018-05-31T06:55:04.124Z,4.73
2018-05-31T06:57:32.294Z,5.83
2018-05-31T07:00:00.481Z,3.67
2018-05-31T07:02:28.642Z,4.00
2018-05-31T07:07:31.176Z,4.70
2018-05-31T07:09:59.351Z,4.60
2018-05-31T07:12:27.543Z,4.70
2018-05-31T07:14:55.746Z,4.93
2018-05-31T07:17:23.953Z,4.17
2018-05-31T07:19:52.134Z,4.47
2018-05-31T07:22:20.286Z,3.27
2018-05-31T07:24:48.486Z,3.83
2018-05-31T07:27:16.679Z,6.63
2018-05-31T07:29:44.883Z,4.90
2018-05-31T07:32:13.071Z,4.50
2018-05-31T07:34:41.275Z,4.33
2018-05-31T07:37:09.432Z,3.63
2018-05-31T07:39:37.593Z,4.87
2018-05-31T07:42:05.783Z,4.77
2018-05-31T07:44:33.932Z,4.00
2018-05-31T07:47:02.129Z,5.47
2018-05-31T07:49:30.319Z,5.30
2018-05-31T07:51:58.516Z,4.07
2018-05-31T07:54:26.714Z,4.47
2018-05-31T07:56:54.868Z,4.13
2018-05-31T07:59:23.071Z,4.27
2018-05-31T08:01:51.234Z,3.60
2018-05-31T08:04:19.490Z,5.87
2018-05-31T08:06:47.675Z,5.03
2018-05-31T08:09:15.836Z,3.80
2018-05-31T08:11:44.114Z,3.33
2018-05-31T08:14:12.298Z,4.37
2018-05-31T08:16:40.469Z,6.17
2018-05-31T08:19:08.681Z,5.37
2018-05-31T08:21:36.864Z,3.47
2018-05-31T08:24:05.022Z,4.37
2018-05-31T08:26:42.042Z,5.83
2018-05-31T08:29:13.684Z,5.43
2018-05-31T08:31:41.942Z,6.33
2018-05-31T08:34:10.232Z,5.17
2018-05-31T08:36:38.457Z,4.63
2018-05-31T08:39:06.689Z,3.47
2018-05-31T08:41:34.941Z,5.77
2018-05-31T08:44:03.212Z,6.20
2018-05-31T08:46:31.445Z,7.17
2018-05-31T08:48:59.686Z,6.10
2018-05-31T08:51:27.877Z,3.17
2018-05-31T08:53:56.042Z,4.87
2018-05-31T08:56:24.221Z,6.13
2018-05-31T08:58:52.441Z,7.50
2018-05-31T09:01:20.746Z,4.07
2018-05-31T09:03:48.887Z,3.73
2018-05-31T09:06:17.082Z,5.00
2018-05-31T09:08:45.247Z,4.70
2018-05-31T09:11:13.427Z,3.90
2018-05-31T09:13:41.642Z,7.87
2018-05-31T09:16:09.835Z,4.43
2018-05-31T09:18:38.112Z,4.53
2018-05-31T09:21:06.291Z,6.33
2018-05-31T09:23:34.440Z,4.90
2018-05-31T09:26:02.636Z,4.40
2018-05-31T09:28:30.823Z,3.47
2018-05-31T09:30:59.029Z,5.73
2018-05-31T09:33:27.164Z,5.43
2018-05-31T09:35:55.351Z,9.67
2018-05-31T09:38:23.507Z,6.30
2018-05-31T09:40:51.674Z,4.17
2018-05-31T09:43:19.861Z,4.80
2018-05-31T09:45:48.082Z,8.70
2018-05-31T09:48:16.276Z,3.57
2018-05-31T09:50:44.416Z,7.37
2018-05-31T09:53:12.621Z,4.57
2018-05-31T09:55:40.777Z,8.67
2018-05-31T09:58:08.989Z,3.47
2018-05-31T10:00:37.956Z,3.27
2018-05-31T10:03:06.100Z,3.00
2018-05-31T10:05:34.387Z,7.97
2018-05-31T10:08:04.378Z,6.10
2018-05-31T10:10:33.931Z,4.93
2018-05-31T10:13:03.127Z,5.83
2018-05-31T10:15:31.487Z,6.60
2018-05-31T10:18:00.799Z,4.03
2018-05-31T10:20:28.978Z,8.20
2018-05-31T10:22:57.164Z,5.07
2018-05-31T10:25:25.375Z,4.00
2018-05-31T10:27:54.354Z,6.50
2018-05-31T10:30:22.518Z,4.80
2018-05-31T10:32:50.714Z,5.97
2018-05-31T10:35:18.924Z,5.53
2018-05-31T10:37:47.117Z,6.47
2018-05-31T10:40:15.328Z,4.97
2018-05-31T10:42:43.535Z,6.70
2018-05-31T10:45:11.724Z,4.73
2018-05-31T10:47:39.888Z,5.40
2018-05-31T10:50:08.175Z,6.63
2018-05-31T10:52:36.457Z,6.70
2018-05-31T10:55:05.875Z,7.80
2018-05-31T10:57:35.108Z,5.80
2018-05-31T11:00:03.301Z,8.83
2018-05-31T11:02:31.694Z,4.97
2018-05-31T11:04:59.854Z,7.20
2018-05-31T11:07:28.007Z,6.00
2018-05-31T11:09:56.210Z,5.33
2018-05-31T11:12:24.364Z,8.90
2018-05-31T11:14:52.548Z,7.57
2018-05-31T11:17:20.732Z,8.50
2018-05-31T11:19:48.966Z,10.63
2018-05-31T11:22:17.138Z,5.13
2018-05-31T11:24:45.326Z,6.13
2018-05-31T11:27:13.498Z,7.60
2018-05-31T11:29:41.761Z,5.90
2018-05-31T11:32:09.927Z,4.47
2018-05-31T11:34:38.118Z,7.50
2018-05-31T11:37:06.320Z,6.23
2018-05-31T11:39:34.813Z,4.77
2018-05-31T11:42:02.989Z,7.63
2018-05-31T11:44:31.184Z,5.10
2018-05-31T11:46:59.317Z,6.73
2018-05-31T11:49:27.496Z,5.10
2018-05-31T11:51:55.658Z,8.27
2018-05-31T11:54:23.911Z,6.72
2018-05-31T11:56:52.093Z,7.90
2018-05-31T11:59:20.275Z,6.05
2018-05-31T12:01:48.600Z,7.18
2018-05-31T12:04:16.793Z,7.22
2018-05-31T12:06:44.989Z,5.28
2018-05-31T12:09:13.183Z,8.73
2018-05-31T12:11:41.345Z,6.78
2018-05-31T12:14:09.547Z,5.72
2018-05-31T12:16:37.710Z,6.93
2018-05-31T12:19:05.871Z,4.82
2018-05-31T12:21:34.054Z,6.97
2018-05-31T12:24:02.234Z,6.82
2018-05-31T12:26:30.418Z,7.68
2018-05-31T12:28:58.606Z,4.85
2018-05-31T12:31:26.773Z,5.40
2018-05-31T12:33:54.953Z,5.57
2018-05-31T12:36:23.125Z,7.00
2018-05-31T12:38:51.298Z,8.63
2018-05-31T12:41:19.496Z,5.85
2018-05-31T12:43:47.685Z,7.10
2018-05-31T12:46:15.866Z,7.10
2018-05-31T12:48:44.014Z,5.72
2018-05-31T12:51:12.208Z,7.32
2018-05-31T12:53:40.373Z,8.32
2018-05-31T12:56:08.591Z,9.90
2018-05-31T12:58:36.775Z,4.05
2018-05-31T13:01:04.967Z,8.45
2018-05-31T13:03:33.147Z,4.43
2018-05-31T13:06:01.360Z,6.95
2018-05-31T13:08:29.508Z,6.78
2018-05-31T13:10:57.655Z,6.43
2018-05-31T13:13:25.849Z,6.30
2018-05-31T13:15:54.015Z,5.87
2018-05-31T13:18:22.188Z,7.82
2018-05-31T13:20:50.347Z,7.37
2018-05-31T13:23:18.510Z,6.15
2018-05-31T13:25:46.788Z,8.27
2018-05-31T13:28:14.947Z,8.38
2018-05-31T13:30:43.166Z,8.48
2018-05-31T13:33:11.330Z,8.73
2018-05-31T13:35:39.517Z,10.23
2018-05-31T13:38:07.813Z,8.07
2018-05-31T13:40:35.959Z,9.43
2018-05-31T13:43:04.187Z,7.10
2018-05-31T13:45:32.335Z,8.95
2018-05-31T13:48:00.520Z,8.27
2018-05-31T13:50:28.723Z,10.32
2018-05-31T13:52:56.912Z,10.85
2018-05-31T13:55:25.075Z,9.48
2018-05-31T13:57:53.273Z,8.90
2018-05-31T14:00:21.452Z,9.43
2018-05-31T14:02:49.669Z,9.77
2018-05-31T14:05:17.828Z,10.88
2018-05-31T14:07:45.999Z,9.60
2018-05-31T14:10:14.180Z,7.55
2018-05-31T14:12:42.334Z,8.32
2018-05-31T14:15:10.528Z,8.50
2018-05-31T14:17:38.696Z,7.00
2018-05-31T14:20:06.900Z,7.50
2018-05-31T14:22:35.087Z,8.43
2018-05-31T14:25:03.264Z,6.70
2018-05-31T14:27:31.455Z,7.18
2018-05-31T14:29:59.662Z,5.90
2018-05-31T14:32:27.832Z,8.82
2018-05-31T14:34:56.039Z,11.30
2018-05-31T14:37:24.195Z,6.10
2018-05-31T14:39:52.378Z,7.32
2018-05-31T14:42:20.529Z,5.93
2018-05-31T14:44:48.724Z,5.70
2018-05-31T14:47:16.891Z,8.77
2018-05-31T14:49:45.066Z,10.65
2018-05-31T14:52:13.279Z,7.70
2018-05-31T14:54:41.462Z,7.87
2018-05-31T14:57:09.641Z,6.72
2018-05-31T14:59:37.854Z,7.60
2018-05-31T15:02:06.023Z,5.53
2018-05-31T15:04:34.189Z,5.65
2018-05-31T15:07:02.434Z,7.75
2018-05-31T15:09:30.724Z,7.80
2018-05-31T15:11:58.874Z,8.27
2018-05-31T15:14:27.086Z,6.37
2018-05-31T15:16:55.281Z,8.65
2018-05-31T15:19:23.471Z,8.98
2018-05-31T15:21:51.671Z,9.10
2018-05-31T15:24:19.932Z,8.55
2018-05-31T15:26:48.261Z,9.38
2018-05-31T15:29:16.459Z,7.35
2018-05-31T15:31:44.805Z,7.68
2018-05-31T15:34:13.096Z,8.43
2018-05-31T15:36:41.447Z,6.18
2018-05-31T15:39:09.690Z,5.97
2018-05-31T15:41:37.876Z,9.05
2018-05-31T15:44:06.220Z,7.97
2018-05-31T15:46:34.430Z,5.95
2018-05-31T15:49:02.666Z,7.70
2018-05-31T15:51:31.026Z,7.95
2018-05-31T15:53:59.234Z,8.10
2018-05-31T15:56:27.394Z,8.50
2018-05-31T15:58:55.602Z,8.13
2018-05-31T16:01:23.784Z,7.78
2018-05-31T16:03:51.975Z,9.60
2018-05-31T16:06:20.164Z,5.85
2018-05-31T16:08:48.359Z,7.40
2018-05-31T16:11:16.941Z,9.25
2018-05-31T16:13:45.174Z,7.20
2018-05-31T16:16:13.451Z,8.70
2018-05-31T16:18:42.292Z,8.20
2018-05-31T16:21:10.809Z,9.85
2018-05-31T16:23:39.548Z,9.40
2018-05-31T16:26:07.936Z,11.38
2018-05-31T16:28:36.332Z,13.25
2018-05-31T16:31:04.642Z,8.63
2018-05-31T16:33:32.855Z,8.95
2018-05-31T16:36:01.133Z,8.52
2018-05-31T16:38:29.322Z,6.75
2018-05-31T16:40:57.597Z,12.43
2018-05-31T16:43:25.897Z,15.90
2018-05-31T16:45:54.164Z,9.45
2018-05-31T16:48:22.406Z,7.37
2018-05-31T16:50:50.734Z,7.05
2018-05-31T16:53:19.208Z,8.82
2018-05-31T16:55:47.492Z,8.57
2018-05-31T16:58:15.813Z,11.80
2018-05-31T17:00:44.339Z,12.80
2018-05-31T17:03:12.667Z,12.85
2018-05-31T17:05:40.885Z,10.40
2018-05-31T17:08:09.210Z,13.45
2018-05-31T17:10:37.476Z,10.45
2018-05-31T17:13:05.742Z,10.40
2018-05-31T17:15:34.038Z,6.60
2018-05-31T17:18:02.503Z,8.05
2018-05-31T17:20:30.747Z,10.98
2018-05-31T17:22:59.004Z,10.75
2018-05-31T17:25:27.286Z,8.93
2018-05-31T17:27:55.591Z,11.23
2018-05-31T17:30:24.104Z,9.10
2018-05-31T17:32:52.291Z,11.18
2018-05-31T17:35:20.496Z,13.45
2018-05-31T17:37:48.761Z,12.32
2018-05-31T17:40:16.987Z,8.77
2018-05-31T17:42:45.213Z,8.55
2018-05-31T17:45:13.453Z,8.32
2018-05-31T17:47:41.665Z,8.70
2018-05-31T17:50:09.961Z,9.30
2018-05-31T17:52:38.249Z,6.60
2018-05-31T17:55:06.496Z,12.95
2018-05-31T17:57:34.737Z,8.98
2018-05-31T18:00:02.910Z,9.88
2018-05-31T18:02:31.078Z,17.23
2018-05-31T18:04:59.261Z,13.75
2018-05-31T18:07:27.438Z,12.13
2018-05-31T18:09:55.624Z,11.93
2018-05-31T18:12:23.819Z,14.15
2018-05-31T18:14:52.019Z,14.30
2018-05-31T18:17:20.205Z,13.48
2018-05-31T18:19:48.393Z,19.83
2018-05-31T18:22:16.580Z,14.77
2018-05-31T18:24:44.827Z,15.13
2018-05-31T18:27:13.000Z,15.80
2018-05-31T18:29:41.247Z,15.18
2018-05-31T18:32:11.247Z,14.90
2018-05-31T18:34:39.449Z,19.98
2018-05-31T18:37:07.688Z,15.70
2018-05-31T18:39:35.949Z,11.75
2018-05-31T18:42:04.107Z,14.15
2018-05-31T18:44:32.294Z,14.50
2018-05-31T18:47:00.501Z,15.05
2018-05-31T18:49:28.693Z,10.73
2018-05-31T18:51:57.018Z,15.52
2018-05-31T18:54:25.270Z,15.87
2018-05-31T18:56:53.487Z,16.77
2018-05-31T18:59:21.683Z,15.43
2018-05-31T19:01:49.880Z,12.45
2018-05-31T19:04:18.109Z,13.52
2018-05-31T19:06:46.288Z,16.23
2018-05-31T19:09:20.163Z,13.15
2018-05-31T19:11:48.354Z,16.77
2018-05-31T19:14:16.550Z,18.00
2018-05-31T19:16:44.772Z,15.63
2018-05-31T19:19:18.514Z,13.73
2018-05-31T19:21:46.722Z,19.77
2018-05-31T19:24:20.335Z,12.85
2018-05-31T19:26:48.506Z,16.83
2018-05-31T19:29:16.741Z,17.67
2018-05-31T19:31:44.913Z,18.02
2018-05-31T19:34:13.165Z,13.40
2018-05-31T19:36:47.045Z,13.57
2018-05-31T19:39:15.270Z,13.67
2018-05-31T19:41:43.470Z,13.83
2018-05-31T19:44:17.197Z,15.00
2018-05-31T19:46:45.370Z,11.67
2018-05-31T19:49:13.550Z,11.07
2018-05-31T19:51:47.355Z,14.35
2018-05-31T19:54:15.566Z,16.10
2018-05-31T19:56:43.723Z,13.35
2018-05-31T19:59:17.510Z,13.52
2018-05-31T20:01:51.257Z,19.20
2018-05-31T20:04:19.458Z,23.35
2018-05-31T20:06:47.629Z,18.57
2018-05-31T20:09:15.805Z,16.37
2018-05-31T20:11:44.014Z,14.30
2018-05-31T20:14:12.222Z,14.00
2018-05-31T20:16:40.432Z,15.07
2018-05-31T20:19:08.611Z,15.60
2018-05-31T20:21:36.837Z,14.80
2018-05-31T20:24:05.020Z,14.37
2018-05-31T20:26:33.275Z,14.53
2018-05-31T20:29:01.496Z,18.30
2018-05-31T20:31:29.711Z,18.20
2018-05-31T20:33:57.944Z,16.03
2018-05-31T20:36:26.120Z,16.53
2018-05-31T20:38:54.286Z,16.73
2018-05-31T20:41:22.528Z,18.67
2018-05-31T20:43:50.696Z,16.10
2018-05-31T20:46:18.909Z,18.73
2018-05-31T20:48:47.094Z,18.47
2018-05-31T20:51:15.326Z,16.83
2018-05-31T20:53:44.455Z,17.37
2018-05-31T20:56:12.650Z,18.30
2018-05-31T20:58:40.842Z,17.87
2018-05-31T21:01:09.020Z,18.07
2018-05-31T21:03:37.272Z,16.70
2018-05-31T21:06:05.433Z,21.63
2018-05-31T21:08:33.646Z,18.60
2018-05-31T21:11:01.852Z,20.10
2018-05-31T21:13:30.019Z,19.03
2018-05-31T21:15:58.185Z,21.23
2018-05-31T21:18:26.394Z,18.67
2018-05-31T21:20:54.605Z,21.53
2018-05-31T21:23:22.819Z,20.90
2018-05-31T21:25:50.971Z,20.20
2018-05-31T21:28:19.170Z,22.00
2018-05-31T21:30:47.349Z,21.13
2018-05-31T21:33:15.546Z,20.33
2018-05-31T21:35:43.811Z,20.07
2018-05-31T21:38:11.959Z,21.83
2018-05-31T21:40:40.242Z,20.40
2018-05-31T21:43:08.463Z,21.03
2018-05-31T21:45:36.643Z,20.50
2018-05-31T21:48:04.856Z,21.30
2018-05-31T21:50:33.039Z,19.40
2018-05-31T21:53:01.253Z,21.93
2018-05-31T21:55:29.437Z,19.90
2018-05-31T21:57:57.654Z,23.13
2018-05-31T22:00:40.288Z,19.90
2018-05-31T22:03:08.461Z,21.27
2018-05-31T22:05:36.717Z,21.63
2018-05-31T22:08:04.843Z,23.57
2018-05-31T22:10:33.036Z,24.37
2018-05-31T22:13:01.219Z,23.33
2018-05-31T22:15:29.397Z,23.23
2018-05-31T22:17:57.611Z,22.63
2018-05-31T22:20:25.791Z,22.87
2018-05-31T22:22:53.956Z,23.40
2018-05-31T22:25:22.167Z,22.37
2018-05-31T22:27:50.315Z,20.90
2018-05-31T22:30:18.514Z,22.87
2018-05-31T22:32:46.741Z,23.93
2018-05-31T22:35:14.888Z,23.07
2018-05-31T22:37:43.072Z,23.57
2018-05-31T22:40:11.285Z,23.30
2018-05-31T22:42:39.452Z,24.87
2018-05-31T22:45:07.646Z,24.63
2018-05-31T22:47:35.858Z,24.20
2018-05-31T22:50:04.062Z,22.13
2018-05-31T22:52:32.255Z,24.30
2018-05-31T22:55:00.435Z,23.27
2018-05-31T22:57:28.605Z,24.43
2018-05-31T22:59:56.830Z,23.43
2018-05-31T23:02:25.017Z,22.93
2018-05-31T23:04:53.212Z,24.60
2018-05-31T23:07:21.404Z,25.47
2018-05-31T23:09:49.625Z,22.03
2018-05-31T23:12:17.798Z,21.23
2018-05-31T23:14:46.010Z,20.77
2018-05-31T23:17:14.220Z,20.93
2018-05-31T23:19:42.431Z,19.97
2018-05-31T23:22:10.628Z,20.60
2018-05-31T23:24:38.800Z,20.87
2018-05-31T23:27:07.049Z,19.23
2018-05-31T23:29:35.323Z,19.50
2018-05-31T23:32:03.482Z,20.10
2018-05-31T23:34:31.670Z,18.80
2018-05-31T23:36:59.824Z,17.67
2018-05-31T23:39:28.026Z,18.67
2018-05-31T23:41:56.213Z,18.63
2018-05-31T23:44:24.423Z,18.30
2018-05-31T23:46:52.590Z,17.50
2018-05-31T23:49:20.853Z,17.70
2018-05-31T23:51:49.039Z,18.40
2018-05-31T23:54:17.232Z,19.30
2018-05-31T23:56:45.428Z,18.63
2018-05-31T23:59:13.639Z,18.67
